sensor_id;sensor_type;location;lat;lon;timestamp;temperature;humidity
25556;DHT22;13447;57.174;-2.112;2023-04-24T00:00:47;5.10;99.90
25556;DHT22;13447;57.174;-2.112;2023-04-24T00:03:14;5.10;99.90
25556;DHT22;13447;57.174;-2.112;2023-04-24T00:05:41;5.10;99.90
25556;DHT22;13447;57.174;-2.112;2023-04-24T00:08:08;5.10;99.90
25556;DHT22;13447;57.174;-2.112;2023-04-24T00:10:35;5.20;99.90
25556;DHT22;13447;57.174;-2.112;2023-04-24T00:13:02;5.10;99.90
25556;DHT22;13447;57.174;-2.112;2023-04-24T00:15:28;5.10;99.90
25556;DHT22;13447;57.174;-2.112;2023-04-24T00:17:57;5.10;99.90
25556;DHT22;13447;57.174;-2.112;2023-04-24T00:20:24;5.10;99.90
25556;DHT22;13447;57.174;-2.112;2023-04-24T00:22:51;5.10;99.90
25556;DHT22;13447;57.174;-2.112;2023-04-24T00:25:18;5.20;99.90
25556;DHT22;13447;57.174;-2.112;2023-04-24T00:27:45;5.10;99.90
25556;DHT22;13447;57.174;-2.112;2023-04-24T00:30:12;5.00;99.90
25556;DHT22;13447;57.174;-2.112;2023-04-24T00:32:39;4.90;99.90
25556;DHT22;13447;57.174;-2.112;2023-04-24T00:35:06;4.80;99.90
25556;DHT22;13447;57.174;-2.112;2023-04-24T00:37:32;4.80;99.90
25556;DHT22;13447;57.174;-2.112;2023-04-24T00:39:59;4.70;99.90
25556;DHT22;13447;57.174;-2.112;2023-04-24T00:42:26;4.70;99.90
25556;DHT22;13447;57.174;-2.112;2023-04-24T00:44:53;4.60;99.90
25556;DHT22;13447;57.174;-2.112;2023-04-24T00:47:20;4.50;99.90
25556;DHT22;13447;57.174;-2.112;2023-04-24T00:49:48;4.50;99.90
25556;DHT22;13447;57.174;-2.112;2023-04-24T00:52:15;4.50;99.90
25556;DHT22;13447;57.174;-2.112;2023-04-24T00:54:44;4.50;99.90
25556;DHT22;13447;57.174;-2.112;2023-04-24T00:57:14;4.40;99.90
25556;DHT22;13447;57.174;-2.112;2023-04-24T00:59:44;4.40;99.90
25556;DHT22;13447;57.174;-2.112;2023-04-24T01:02:11;4.40;99.90
25556;DHT22;13447;57.174;-2.112;2023-04-24T01:04:38;4.40;99.90
25556;DHT22;13447;57.174;-2.112;2023-04-24T01:07:05;4.40;99.90
25556;DHT22;13447;57.174;-2.112;2023-04-24T01:09:37;4.40;99.90
25556;DHT22;13447;57.174;-2.112;2023-04-24T01:12:07;4.40;99.90
25556;DHT22;13447;57.174;-2.112;2023-04-24T01:14:34;4.50;99.90
25556;DHT22;13447;57.174;-2.112;2023-04-24T01:17:01;4.50;99.90
25556;DHT22;13447;57.174;-2.112;2023-04-24T01:19:30;4.60;99.90
25556;DHT22;13447;57.174;-2.112;2023-04-24T01:22:01;4.60;99.90
25556;DHT22;13447;57.174;-2.112;2023-04-24T01:24:28;4.60;99.90
25556;DHT22;13447;57.174;-2.112;2023-04-24T01:26:55;4.60;99.90
25556;DHT22;13447;57.174;-2.112;2023-04-24T01:29:23;4.70;99.90
25556;DHT22;13447;57.174;-2.112;2023-04-24T01:31:50;4.70;99.90
25556;DHT22;13447;57.174;-2.112;2023-04-24T01:34:17;4.70;99.90
25556;DHT22;13447;57.174;-2.112;2023-04-24T01:36:45;4.70;99.90
25556;DHT22;13447;57.174;-2.112;2023-04-24T01:39:12;4.70;99.90
25556;DHT22;13447;57.174;-2.112;2023-04-24T01:41:39;4.80;99.90
25556;DHT22;13447;57.174;-2.112;2023-04-24T01:44:06;4.80;99.90
25556;DHT22;13447;57.174;-2.112;2023-04-24T01:46:32;4.90;99.90
25556;DHT22;13447;57.174;-2.112;2023-04-24T01:49:01;4.90;99.90
25556;DHT22;13447;57.174;-2.112;2023-04-24T01:51:28;4.90;99.90
25556;DHT22;13447;57.174;-2.112;2023-04-24T01:53:55;4.90;99.90
25556;DHT22;13447;57.174;-2.112;2023-04-24T01:56:22;5.00;99.90
25556;DHT22;13447;57.174;-2.112;2023-04-24T01:58:49;4.90;99.90
25556;DHT22;13447;57.174;-2.112;2023-04-24T02:01:20;4.90;99.90
25556;DHT22;13447;57.174;-2.112;2023-04-24T02:03:47;4.90;99.90
25556;DHT22;13447;57.174;-2.112;2023-04-24T02:06:14;4.80;99.90
25556;DHT22;13447;57.174;-2.112;2023-04-24T02:08:41;4.80;99.90
25556;DHT22;13447;57.174;-2.112;2023-04-24T02:11:08;4.80;99.90
25556;DHT22;13447;57.174;-2.112;2023-04-24T02:13:36;4.70;99.90
25556;DHT22;13447;57.174;-2.112;2023-04-24T02:16:02;4.70;99.90
25556;DHT22;13447;57.174;-2.112;2023-04-24T02:18:29;4.70;99.90
25556;DHT22;13447;57.174;-2.112;2023-04-24T02:20:56;4.80;99.90
25556;DHT22;13447;57.174;-2.112;2023-04-24T02:23:23;4.70;99.90
25556;DHT22;13447;57.174;-2.112;2023-04-24T02:25:50;4.80;99.90
25556;DHT22;13447;57.174;-2.112;2023-04-24T02:28:17;4.80;99.90
25556;DHT22;13447;57.174;-2.112;2023-04-24T02:30:44;4.80;99.90
25556;DHT22;13447;57.174;-2.112;2023-04-24T02:33:11;4.80;99.90
25556;DHT22;13447;57.174;-2.112;2023-04-24T02:35:38;4.70;99.90
25556;DHT22;13447;57.174;-2.112;2023-04-24T02:38:05;4.70;99.90
25556;DHT22;13447;57.174;-2.112;2023-04-24T02:40:31;4.80;99.90
25556;DHT22;13447;57.174;-2.112;2023-04-24T02:42:58;4.80;99.90
25556;DHT22;13447;57.174;-2.112;2023-04-24T02:45:25;4.70;99.90
25556;DHT22;13447;57.174;-2.112;2023-04-24T02:47:52;4.80;99.90
25556;DHT22;13447;57.174;-2.112;2023-04-24T02:50:19;4.70;99.90
25556;DHT22;13447;57.174;-2.112;2023-04-24T02:52:45;4.80;99.90
25556;DHT22;13447;57.174;-2.112;2023-04-24T02:55:12;4.80;99.90
25556;DHT22;13447;57.174;-2.112;2023-04-24T02:57:39;4.80;99.90
25556;DHT22;13447;57.174;-2.112;2023-04-24T03:00:06;4.80;99.90
25556;DHT22;13447;57.174;-2.112;2023-04-24T03:02:33;4.90;99.90
25556;DHT22;13447;57.174;-2.112;2023-04-24T03:05:01;4.90;99.90
25556;DHT22;13447;57.174;-2.112;2023-04-24T03:07:28;4.80;99.90
25556;DHT22;13447;57.174;-2.112;2023-04-24T03:09:55;4.80;99.90
25556;DHT22;13447;57.174;-2.112;2023-04-24T03:12:24;4.90;99.90
25556;DHT22;13447;57.174;-2.112;2023-04-24T03:14:51;4.90;99.90
25556;DHT22;13447;57.174;-2.112;2023-04-24T03:17:18;4.90;99.90
25556;DHT22;13447;57.174;-2.112;2023-04-24T03:19:44;4.90;99.90
25556;DHT22;13447;57.174;-2.112;2023-04-24T03:22:11;4.90;99.90
25556;DHT22;13447;57.174;-2.112;2023-04-24T03:24:38;4.90;99.90
25556;DHT22;13447;57.174;-2.112;2023-04-24T03:27:05;4.90;99.90
25556;DHT22;13447;57.174;-2.112;2023-04-24T03:29:32;4.90;99.90
25556;DHT22;13447;57.174;-2.112;2023-04-24T03:31:59;4.90;99.90
25556;DHT22;13447;57.174;-2.112;2023-04-24T03:34:25;5.00;99.90
25556;DHT22;13447;57.174;-2.112;2023-04-24T03:36:52;5.10;99.90
25556;DHT22;13447;57.174;-2.112;2023-04-24T03:39:19;5.10;99.90
25556;DHT22;13447;57.174;-2.112;2023-04-24T03:44:13;5.30;99.90
25556;DHT22;13447;57.174;-2.112;2023-04-24T03:46:40;5.30;99.90
25556;DHT22;13447;57.174;-2.112;2023-04-24T03:49:07;5.30;99.90
25556;DHT22;13447;57.174;-2.112;2023-04-24T03:51:34;5.30;99.90
25556;DHT22;13447;57.174;-2.112;2023-04-24T03:54:00;5.40;99.90
25556;DHT22;13447;57.174;-2.112;2023-04-24T03:56:27;5.40;99.90
25556;DHT22;13447;57.174;-2.112;2023-04-24T03:58:54;5.20;99.90
25556;DHT22;13447;57.174;-2.112;2023-04-24T04:01:21;5.20;99.90
25556;DHT22;13447;57.174;-2.112;2023-04-24T04:03:48;5.20;99.90
25556;DHT22;13447;57.174;-2.112;2023-04-24T04:06:15;5.20;99.90
25556;DHT22;13447;57.174;-2.112;2023-04-24T04:08:42;5.30;99.90
25556;DHT22;13447;57.174;-2.112;2023-04-24T04:11:09;5.30;99.90
25556;DHT22;13447;57.174;-2.112;2023-04-24T04:13:36;5.20;99.90
25556;DHT22;13447;57.174;-2.112;2023-04-24T04:16:03;5.20;99.90
25556;DHT22;13447;57.174;-2.112;2023-04-24T04:18:30;5.20;99.90
25556;DHT22;13447;57.174;-2.112;2023-04-24T04:20:56;5.20;99.90
25556;DHT22;13447;57.174;-2.112;2023-04-24T04:23:23;5.20;99.90
25556;DHT22;13447;57.174;-2.112;2023-04-24T04:25:50;5.20;99.90
25556;DHT22;13447;57.174;-2.112;2023-04-24T04:28:18;5.10;99.90
25556;DHT22;13447;57.174;-2.112;2023-04-24T04:30:46;5.10;99.90
25556;DHT22;13447;57.174;-2.112;2023-04-24T04:33:13;5.10;99.90
25556;DHT22;13447;57.174;-2.112;2023-04-24T04:35:41;5.00;99.90
25556;DHT22;13447;57.174;-2.112;2023-04-24T04:38:07;5.00;99.90
25556;DHT22;13447;57.174;-2.112;2023-04-24T04:40:34;4.90;99.90
25556;DHT22;13447;57.174;-2.112;2023-04-24T04:43:01;4.80;99.90
25556;DHT22;13447;57.174;-2.112;2023-04-24T04:45:29;4.70;99.90
25556;DHT22;13447;57.174;-2.112;2023-04-24T04:47:55;4.70;99.90
25556;DHT22;13447;57.174;-2.112;2023-04-24T04:50:23;4.70;99.90
25556;DHT22;13447;57.174;-2.112;2023-04-24T04:52:50;4.70;99.90
25556;DHT22;13447;57.174;-2.112;2023-04-24T04:55:16;4.70;99.90
25556;DHT22;13447;57.174;-2.112;2023-04-24T04:57:44;4.60;99.90
25556;DHT22;13447;57.174;-2.112;2023-04-24T05:00:12;4.70;99.90
25556;DHT22;13447;57.174;-2.112;2023-04-24T05:02:39;4.70;99.90
25556;DHT22;13447;57.174;-2.112;2023-04-24T05:05:06;4.70;99.90
25556;DHT22;13447;57.174;-2.112;2023-04-24T05:10:01;4.50;99.90
25556;DHT22;13447;57.174;-2.112;2023-04-24T05:12:28;4.30;99.90
25556;DHT22;13447;57.174;-2.112;2023-04-24T05:14:55;4.20;99.90
25556;DHT22;13447;57.174;-2.112;2023-04-24T05:17:22;4.00;99.90
25556;DHT22;13447;57.174;-2.112;2023-04-24T05:19:49;4.00;99.90
25556;DHT22;13447;57.174;-2.112;2023-04-24T05:22:15;3.90;99.90
25556;DHT22;13447;57.174;-2.112;2023-04-24T05:24:44;3.90;99.90
25556;DHT22;13447;57.174;-2.112;2023-04-24T05:27:11;3.90;99.90
25556;DHT22;13447;57.174;-2.112;2023-04-24T05:29:38;3.90;99.90
25556;DHT22;13447;57.174;-2.112;2023-04-24T05:32:05;3.90;99.90
25556;DHT22;13447;57.174;-2.112;2023-04-24T05:34:32;3.90;99.90
25556;DHT22;13447;57.174;-2.112;2023-04-24T05:36:59;3.90;99.90
25556;DHT22;13447;57.174;-2.112;2023-04-24T05:39:26;4.00;99.90
25556;DHT22;13447;57.174;-2.112;2023-04-24T05:41:53;4.00;99.90
25556;DHT22;13447;57.174;-2.112;2023-04-24T05:44:19;4.00;99.90
25556;DHT22;13447;57.174;-2.112;2023-04-24T05:46:46;4.10;99.90
25556;DHT22;13447;57.174;-2.112;2023-04-24T05:49:13;4.10;99.90
25556;DHT22;13447;57.174;-2.112;2023-04-24T05:51:40;4.10;99.90
25556;DHT22;13447;57.174;-2.112;2023-04-24T05:54:07;4.10;99.90
25556;DHT22;13447;57.174;-2.112;2023-04-24T05:56:34;4.10;99.90
25556;DHT22;13447;57.174;-2.112;2023-04-24T05:59:01;4.20;99.90
25556;DHT22;13447;57.174;-2.112;2023-04-24T06:01:28;4.20;99.90
25556;DHT22;13447;57.174;-2.112;2023-04-24T06:03:56;4.30;99.90
25556;DHT22;13447;57.174;-2.112;2023-04-24T06:06:23;4.40;99.90
25556;DHT22;13447;57.174;-2.112;2023-04-24T06:08:51;4.40;99.90
25556;DHT22;13447;57.174;-2.112;2023-04-24T06:11:18;4.50;99.90
25556;DHT22;13447;57.174;-2.112;2023-04-24T06:13:44;4.50;99.90
25556;DHT22;13447;57.174;-2.112;2023-04-24T06:16:12;4.40;99.90
25556;DHT22;13447;57.174;-2.112;2023-04-24T06:18:38;4.30;99.90
25556;DHT22;13447;57.174;-2.112;2023-04-24T06:21:05;4.20;99.90
25556;DHT22;13447;57.174;-2.112;2023-04-24T06:23:32;4.20;99.90
25556;DHT22;13447;57.174;-2.112;2023-04-24T06:25:59;4.20;99.90
25556;DHT22;13447;57.174;-2.112;2023-04-24T06:28:26;4.20;99.90
25556;DHT22;13447;57.174;-2.112;2023-04-24T06:30:53;4.20;99.90
25556;DHT22;13447;57.174;-2.112;2023-04-24T06:33:20;4.30;99.90
25556;DHT22;13447;57.174;-2.112;2023-04-24T06:35:49;4.30;99.90
25556;DHT22;13447;57.174;-2.112;2023-04-24T06:38:16;4.40;99.90
25556;DHT22;13447;57.174;-2.112;2023-04-24T06:40:43;4.40;99.90
25556;DHT22;13447;57.174;-2.112;2023-04-24T06:43:10;4.40;99.90
25556;DHT22;13447;57.174;-2.112;2023-04-24T06:45:38;4.40;99.90
25556;DHT22;13447;57.174;-2.112;2023-04-24T06:48:05;4.40;99.90
25556;DHT22;13447;57.174;-2.112;2023-04-24T06:50:32;4.50;99.90
25556;DHT22;13447;57.174;-2.112;2023-04-24T06:52:59;4.50;99.90
25556;DHT22;13447;57.174;-2.112;2023-04-24T06:55:26;4.50;99.90
25556;DHT22;13447;57.174;-2.112;2023-04-24T06:57:53;4.60;99.90
25556;DHT22;13447;57.174;-2.112;2023-04-24T07:00:19;4.50;99.90
25556;DHT22;13447;57.174;-2.112;2023-04-24T07:02:46;4.50;99.90
25556;DHT22;13447;57.174;-2.112;2023-04-24T07:05:13;4.50;99.90
25556;DHT22;13447;57.174;-2.112;2023-04-24T07:07:42;4.50;99.90
25556;DHT22;13447;57.174;-2.112;2023-04-24T07:10:09;4.60;99.90
25556;DHT22;13447;57.174;-2.112;2023-04-24T07:12:36;4.60;99.90
25556;DHT22;13447;57.174;-2.112;2023-04-24T07:15:04;4.60;99.90
25556;DHT22;13447;57.174;-2.112;2023-04-24T07:17:31;4.60;99.90
25556;DHT22;13447;57.174;-2.112;2023-04-24T07:19:58;4.70;99.90
25556;DHT22;13447;57.174;-2.112;2023-04-24T07:22:25;4.90;99.90
25556;DHT22;13447;57.174;-2.112;2023-04-24T07:24:53;5.00;99.90
25556;DHT22;13447;57.174;-2.112;2023-04-24T07:27:20;4.90;99.90
25556;DHT22;13447;57.174;-2.112;2023-04-24T07:29:47;5.00;99.90
25556;DHT22;13447;57.174;-2.112;2023-04-24T07:32:13;5.10;99.90
25556;DHT22;13447;57.174;-2.112;2023-04-24T07:34:40;5.20;99.90
25556;DHT22;13447;57.174;-2.112;2023-04-24T07:37:07;5.20;99.90
25556;DHT22;13447;57.174;-2.112;2023-04-24T07:39:34;5.40;99.90
25556;DHT22;13447;57.174;-2.112;2023-04-24T07:42:01;5.40;99.90
25556;DHT22;13447;57.174;-2.112;2023-04-24T07:44:28;5.50;99.90
25556;DHT22;13447;57.174;-2.112;2023-04-24T07:46:55;5.60;99.90
25556;DHT22;13447;57.174;-2.112;2023-04-24T07:49:23;5.70;99.90
25556;DHT22;13447;57.174;-2.112;2023-04-24T07:51:50;5.90;99.90
25556;DHT22;13447;57.174;-2.112;2023-04-24T07:54:17;6.20;99.90
25556;DHT22;13447;57.174;-2.112;2023-04-24T07:56:43;6.30;99.90
25556;DHT22;13447;57.174;-2.112;2023-04-24T07:59:10;6.40;99.90
25556;DHT22;13447;57.174;-2.112;2023-04-24T08:01:37;6.60;99.90
25556;DHT22;13447;57.174;-2.112;2023-04-24T08:04:05;6.60;99.90
25556;DHT22;13447;57.174;-2.112;2023-04-24T08:06:32;6.80;99.90
25556;DHT22;13447;57.174;-2.112;2023-04-24T08:08:59;7.10;99.90
25556;DHT22;13447;57.174;-2.112;2023-04-24T08:11:26;7.30;99.90
25556;DHT22;13447;57.174;-2.112;2023-04-24T08:13:53;7.40;99.90
25556;DHT22;13447;57.174;-2.112;2023-04-24T08:16:21;7.20;1.00
25556;DHT22;13447;57.174;-2.112;2023-04-24T08:18:50;7.20;17.50
25556;DHT22;13447;57.174;-2.112;2023-04-24T08:21:17;7.20;1.00
25556;DHT22;13447;57.174;-2.112;2023-04-24T08:23:45;7.20;1.00
25556;DHT22;13447;57.174;-2.112;2023-04-24T08:26:12;7.10;1.00
25556;DHT22;13447;57.174;-2.112;2023-04-24T08:28:39;7.10;1.00
25556;DHT22;13447;57.174;-2.112;2023-04-24T08:31:06;7.10;1.00
25556;DHT22;13447;57.174;-2.112;2023-04-24T08:33:33;7.00;1.00
25556;DHT22;13447;57.174;-2.112;2023-04-24T08:36:03;7.10;1.00
25556;DHT22;13447;57.174;-2.112;2023-04-24T08:38:30;7.20;1.00
25556;DHT22;13447;57.174;-2.112;2023-04-24T08:40:58;7.40;1.00
25556;DHT22;13447;57.174;-2.112;2023-04-24T08:43:25;7.50;1.00
25556;DHT22;13447;57.174;-2.112;2023-04-24T08:45:52;7.70;1.00
25556;DHT22;13447;57.174;-2.112;2023-04-24T08:48:22;7.60;1.00
25556;DHT22;13447;57.174;-2.112;2023-04-24T08:50:57;7.40;1.00
25556;DHT22;13447;57.174;-2.112;2023-04-24T08:53:24;7.10;1.00
25556;DHT22;13447;57.174;-2.112;2023-04-24T08:55:51;7.00;1.00
25556;DHT22;13447;57.174;-2.112;2023-04-24T08:58:20;7.00;1.00
25556;DHT22;13447;57.174;-2.112;2023-04-24T09:00:47;7.00;1.00
25556;DHT22;13447;57.174;-2.112;2023-04-24T09:03:15;7.10;1.00
25556;DHT22;13447;57.174;-2.112;2023-04-24T09:05:43;7.20;1.00
25556;DHT22;13447;57.174;-2.112;2023-04-24T09:08:12;7.70;1.00
25556;DHT22;13447;57.174;-2.112;2023-04-24T09:10:40;8.00;1.00
25556;DHT22;13447;57.174;-2.112;2023-04-24T09:13:07;8.20;1.00
25556;DHT22;13447;57.174;-2.112;2023-04-24T09:15:37;8.30;1.00
25556;DHT22;13447;57.174;-2.112;2023-04-24T09:18:04;8.20;1.00
25556;DHT22;13447;57.174;-2.112;2023-04-24T09:20:31;8.00;1.00
25556;DHT22;13447;57.174;-2.112;2023-04-24T09:22:58;7.80;1.00
25556;DHT22;13447;57.174;-2.112;2023-04-24T09:25:30;7.90;1.00
25556;DHT22;13447;57.174;-2.112;2023-04-24T09:28:00;7.60;1.00
25556;DHT22;13447;57.174;-2.112;2023-04-24T09:30:27;7.40;1.00
25556;DHT22;13447;57.174;-2.112;2023-04-24T09:33:13;7.50;1.00
25556;DHT22;13447;57.174;-2.112;2023-04-24T09:35:40;7.50;1.00
25556;DHT22;13447;57.174;-2.112;2023-04-24T09:38:08;7.40;1.00
25556;DHT22;13447;57.174;-2.112;2023-04-24T09:40:35;7.40;1.00
25556;DHT22;13447;57.174;-2.112;2023-04-24T09:43:05;7.70;1.00
25556;DHT22;13447;57.174;-2.112;2023-04-24T09:45:37;7.90;1.00
25556;DHT22;13447;57.174;-2.112;2023-04-24T09:48:05;8.00;1.00
25556;DHT22;13447;57.174;-2.112;2023-04-24T09:50:32;8.00;1.00
25556;DHT22;13447;57.174;-2.112;2023-04-24T09:53:01;7.90;1.00
25556;DHT22;13447;57.174;-2.112;2023-04-24T09:55:29;7.90;1.00
25556;DHT22;13447;57.174;-2.112;2023-04-24T09:57:57;7.90;1.00
25556;DHT22;13447;57.174;-2.112;2023-04-24T10:00:24;7.90;99.90
25556;DHT22;13447;57.174;-2.112;2023-04-24T10:03:02;7.90;99.90
25556;DHT22;13447;57.174;-2.112;2023-04-24T10:05:33;7.90;99.90
25556;DHT22;13447;57.174;-2.112;2023-04-24T10:08:04;7.70;99.90
25556;DHT22;13447;57.174;-2.112;2023-04-24T10:10:31;7.80;99.90
25556;DHT22;13447;57.174;-2.112;2023-04-24T10:12:59;7.70;99.90
25556;DHT22;13447;57.174;-2.112;2023-04-24T10:15:26;7.70;99.90
25556;DHT22;13447;57.174;-2.112;2023-04-24T10:17:53;7.70;99.90
25556;DHT22;13447;57.174;-2.112;2023-04-24T10:20:24;7.70;99.90
25556;DHT22;13447;57.174;-2.112;2023-04-24T10:22:52;7.80;99.90
25556;DHT22;13447;57.174;-2.112;2023-04-24T10:25:29;7.80;1.00
25556;DHT22;13447;57.174;-2.112;2023-04-24T10:27:57;7.90;1.00
25556;DHT22;13447;57.174;-2.112;2023-04-24T10:30:26;8.10;99.90
25556;DHT22;13447;57.174;-2.112;2023-04-24T10:32:53;8.30;99.90
25556;DHT22;13447;57.174;-2.112;2023-04-24T10:35:21;8.50;99.90
25556;DHT22;13447;57.174;-2.112;2023-04-24T10:40:27;9.10;99.90
25556;DHT22;13447;57.174;-2.112;2023-04-24T10:42:56;9.80;99.90
25556;DHT22;13447;57.174;-2.112;2023-04-24T10:45:24;10.20;99.90
25556;DHT22;13447;57.174;-2.112;2023-04-24T10:48:01;10.60;99.90
25556;DHT22;13447;57.174;-2.112;2023-04-24T10:50:43;10.80;99.90
25556;DHT22;13447;57.174;-2.112;2023-04-24T10:53:16;10.80;99.90
25556;DHT22;13447;57.174;-2.112;2023-04-24T10:55:50;10.50;99.90
25556;DHT22;13447;57.174;-2.112;2023-04-24T10:58:23;10.60;99.90
25556;DHT22;13447;57.174;-2.112;2023-04-24T11:00:57;11.00;99.90
25556;DHT22;13447;57.174;-2.112;2023-04-24T11:03:28;11.20;99.90
25556;DHT22;13447;57.174;-2.112;2023-04-24T11:08:26;11.40;99.90
25556;DHT22;13447;57.174;-2.112;2023-04-24T11:10:55;11.20;99.90
25556;DHT22;13447;57.174;-2.112;2023-04-24T11:13:22;10.70;99.90
25556;DHT22;13447;57.174;-2.112;2023-04-24T11:18:37;10.70;99.90
25556;DHT22;13447;57.174;-2.112;2023-04-24T11:21:12;11.10;99.90
25556;DHT22;13447;57.174;-2.112;2023-04-24T11:23:39;11.70;99.90
25556;DHT22;13447;57.174;-2.112;2023-04-24T11:26:11;11.90;99.90
25556;DHT22;13447;57.174;-2.112;2023-04-24T11:28:44;12.00;99.90
25556;DHT22;13447;57.174;-2.112;2023-04-24T11:31:56;11.90;99.90
25556;DHT22;13447;57.174;-2.112;2023-04-24T11:34:04;12.10;99.90
25556;DHT22;13447;57.174;-2.112;2023-04-24T11:36:31;12.00;99.90
25556;DHT22;13447;57.174;-2.112;2023-04-24T11:38:58;11.50;99.90
25556;DHT22;13447;57.174;-2.112;2023-04-24T11:41:26;10.90;99.90
25556;DHT22;13447;57.174;-2.112;2023-04-24T11:43:53;10.50;99.90
25556;DHT22;13447;57.174;-2.112;2023-04-24T11:46:22;10.00;99.90
25556;DHT22;13447;57.174;-2.112;2023-04-24T11:48:49;9.70;99.90
25556;DHT22;13447;57.174;-2.112;2023-04-24T11:51:16;9.80;99.90
25556;DHT22;13447;57.174;-2.112;2023-04-24T11:53:42;10.00;99.90
25556;DHT22;13447;57.174;-2.112;2023-04-24T11:56:11;10.20;99.90
25556;DHT22;13447;57.174;-2.112;2023-04-24T11:58:38;10.30;99.90
25556;DHT22;13447;57.174;-2.112;2023-04-24T12:01:05;10.50;99.90
25556;DHT22;13447;57.174;-2.112;2023-04-24T12:03:32;10.60;99.90
25556;DHT22;13447;57.174;-2.112;2023-04-24T12:06:05;10.30;99.90
25556;DHT22;13447;57.174;-2.112;2023-04-24T12:08:34;9.40;99.90
25556;DHT22;13447;57.174;-2.112;2023-04-24T12:11:05;8.60;99.90
25556;DHT22;13447;57.174;-2.112;2023-04-24T12:13:33;7.90;1.00
25556;DHT22;13447;57.174;-2.112;2023-04-24T12:16:04;7.60;1.00
25556;DHT22;13447;57.174;-2.112;2023-04-24T12:18:33;7.40;1.00
25556;DHT22;13447;57.174;-2.112;2023-04-24T12:21:22;7.70;1.00
25556;DHT22;13447;57.174;-2.112;2023-04-24T12:23:48;8.10;1.00
25556;DHT22;13447;57.174;-2.112;2023-04-24T12:26:17;8.50;1.00
25556;DHT22;13447;57.174;-2.112;2023-04-24T12:28:46;9.00;99.90
25556;DHT22;13447;57.174;-2.112;2023-04-24T12:31:13;9.40;99.90
25556;DHT22;13447;57.174;-2.112;2023-04-24T12:33:40;9.70;99.90
25556;DHT22;13447;57.174;-2.112;2023-04-24T12:36:07;9.60;99.90
25556;DHT22;13447;57.174;-2.112;2023-04-24T12:38:36;9.60;99.90
25556;DHT22;13447;57.174;-2.112;2023-04-24T12:41:08;9.60;99.90
25556;DHT22;13447;57.174;-2.112;2023-04-24T12:43:34;9.40;99.90
25556;DHT22;13447;57.174;-2.112;2023-04-24T12:46:02;9.00;99.90
25556;DHT22;13447;57.174;-2.112;2023-04-24T12:48:29;8.80;99.90
25556;DHT22;13447;57.174;-2.112;2023-04-24T12:50:57;8.70;99.90
25556;DHT22;13447;57.174;-2.112;2023-04-24T12:53:27;8.80;99.90
25556;DHT22;13447;57.174;-2.112;2023-04-24T12:55:56;9.10;99.90
25556;DHT22;13447;57.174;-2.112;2023-04-24T12:58:22;9.20;99.90
25556;DHT22;13447;57.174;-2.112;2023-04-24T13:00:49;9.50;99.90
25556;DHT22;13447;57.174;-2.112;2023-04-24T13:03:16;9.20;99.90
25556;DHT22;13447;57.174;-2.112;2023-04-24T13:05:44;9.40;99.90
25556;DHT22;13447;57.174;-2.112;2023-04-24T13:08:11;9.30;99.90
25556;DHT22;13447;57.174;-2.112;2023-04-24T13:10:39;9.40;99.90
25556;DHT22;13447;57.174;-2.112;2023-04-24T13:13:06;9.50;99.90
25556;DHT22;13447;57.174;-2.112;2023-04-24T13:15:33;9.50;99.90
25556;DHT22;13447;57.174;-2.112;2023-04-24T13:18:01;9.20;99.90
25556;DHT22;13447;57.174;-2.112;2023-04-24T13:20:28;8.90;99.90
25556;DHT22;13447;57.174;-2.112;2023-04-24T13:22:55;8.80;99.90
25556;DHT22;13447;57.174;-2.112;2023-04-24T13:25:22;8.80;99.90
25556;DHT22;13447;57.174;-2.112;2023-04-24T13:27:50;8.90;99.90
25556;DHT22;13447;57.174;-2.112;2023-04-24T13:30:17;8.80;99.90
25556;DHT22;13447;57.174;-2.112;2023-04-24T13:32:44;8.80;99.90
25556;DHT22;13447;57.174;-2.112;2023-04-24T13:35:11;8.80;99.90
25556;DHT22;13447;57.174;-2.112;2023-04-24T13:37:38;8.70;99.90
25556;DHT22;13447;57.174;-2.112;2023-04-24T13:40:05;8.80;99.90
25556;DHT22;13447;57.174;-2.112;2023-04-24T13:42:32;8.90;99.90
25556;DHT22;13447;57.174;-2.112;2023-04-24T13:44:59;8.90;99.90
25556;DHT22;13447;57.174;-2.112;2023-04-24T13:47:36;9.10;99.90
25556;DHT22;13447;57.174;-2.112;2023-04-24T13:50:07;9.20;99.90
25556;DHT22;13447;57.174;-2.112;2023-04-24T13:52:34;8.80;99.90
25556;DHT22;13447;57.174;-2.112;2023-04-24T13:55:02;8.30;99.90
25556;DHT22;13447;57.174;-2.112;2023-04-24T13:57:28;8.00;99.90
25556;DHT22;13447;57.174;-2.112;2023-04-24T13:59:57;7.80;1.00
25556;DHT22;13447;57.174;-2.112;2023-04-24T14:02:27;7.80;1.00
25556;DHT22;13447;57.174;-2.112;2023-04-24T14:04:54;7.90;1.00
25556;DHT22;13447;57.174;-2.112;2023-04-24T14:07:21;8.10;1.00
25556;DHT22;13447;57.174;-2.112;2023-04-24T14:09:48;7.80;1.00
25556;DHT22;13447;57.174;-2.112;2023-04-24T14:12:16;7.70;1.00
25556;DHT22;13447;57.174;-2.112;2023-04-24T14:14:46;7.60;1.00
25556;DHT22;13447;57.174;-2.112;2023-04-24T14:17:14;7.70;1.00
25556;DHT22;13447;57.174;-2.112;2023-04-24T14:19:41;7.70;1.00
25556;DHT22;13447;57.174;-2.112;2023-04-24T14:22:07;7.60;1.00
25556;DHT22;13447;57.174;-2.112;2023-04-24T14:24:34;7.50;1.00
25556;DHT22;13447;57.174;-2.112;2023-04-24T14:27:01;7.60;1.00
25556;DHT22;13447;57.174;-2.112;2023-04-24T14:29:28;7.50;1.00
25556;DHT22;13447;57.174;-2.112;2023-04-24T14:31:55;7.50;99.90
25556;DHT22;13447;57.174;-2.112;2023-04-24T14:34:22;7.50;99.90
25556;DHT22;13447;57.174;-2.112;2023-04-24T14:36:48;7.50;99.90
25556;DHT22;13447;57.174;-2.112;2023-04-24T14:39:15;7.70;99.90
25556;DHT22;13447;57.174;-2.112;2023-04-24T14:41:42;8.00;99.90
25556;DHT22;13447;57.174;-2.112;2023-04-24T14:44:09;8.00;99.90
25556;DHT22;13447;57.174;-2.112;2023-04-24T14:46:36;8.10;99.90
25556;DHT22;13447;57.174;-2.112;2023-04-24T14:49:02;8.30;99.90
25556;DHT22;13447;57.174;-2.112;2023-04-24T14:51:29;8.40;99.90
25556;DHT22;13447;57.174;-2.112;2023-04-24T14:53:57;8.50;99.90
25556;DHT22;13447;57.174;-2.112;2023-04-24T14:56:24;8.60;99.90
25556;DHT22;13447;57.174;-2.112;2023-04-24T14:58:52;8.60;99.90
25556;DHT22;13447;57.174;-2.112;2023-04-24T15:01:19;8.70;99.90
25556;DHT22;13447;57.174;-2.112;2023-04-24T15:03:46;8.70;99.90
25556;DHT22;13447;57.174;-2.112;2023-04-24T15:06:13;8.60;99.90
25556;DHT22;13447;57.174;-2.112;2023-04-24T15:08:40;8.40;99.90
25556;DHT22;13447;57.174;-2.112;2023-04-24T15:11:07;8.40;99.90
25556;DHT22;13447;57.174;-2.112;2023-04-24T15:13:35;8.10;99.90
25556;DHT22;13447;57.174;-2.112;2023-04-24T15:16:02;8.00;99.90
25556;DHT22;13447;57.174;-2.112;2023-04-24T15:18:29;8.00;99.90
25556;DHT22;13447;57.174;-2.112;2023-04-24T15:20:56;8.00;99.90
25556;DHT22;13447;57.174;-2.112;2023-04-24T15:23:22;8.10;99.90
25556;DHT22;13447;57.174;-2.112;2023-04-24T15:25:49;8.20;99.90
25556;DHT22;13447;57.174;-2.112;2023-04-24T15:28:16;8.10;99.90
25556;DHT22;13447;57.174;-2.112;2023-04-24T15:30:44;7.60;1.00
25556;DHT22;13447;57.174;-2.112;2023-04-24T15:33:11;6.90;1.00
25556;DHT22;13447;57.174;-2.112;2023-04-24T15:35:38;6.70;1.00
25556;DHT22;13447;57.174;-2.112;2023-04-24T15:38:05;6.50;1.00
25556;DHT22;13447;57.174;-2.112;2023-04-24T15:40:32;6.60;11.70
25556;DHT22;13447;57.174;-2.112;2023-04-24T15:42:59;6.60;32.20
25556;DHT22;13447;57.174;-2.112;2023-04-24T15:45:25;6.60;54.20
25556;DHT22;13447;57.174;-2.112;2023-04-24T15:47:52;6.50;1.00